createdAt,value
2022-09-12T00:01:46.180Z,73.95
2022-09-12T00:04:16.367Z,66.65
2022-09-12T00:06:44.374Z,73.45
2022-09-12T00:09:14.468Z,66.35
2022-09-12T00:11:47.120Z,78.30
2022-09-12T00:14:18.803Z,76.75
2022-09-12T00:16:47.057Z,79.72
2022-09-12T00:19:15.245Z,88.68
2022-09-12T00:21:44.785Z,95.93
2022-09-12T00:24:12.658Z,100.97
2022-09-12T00:26:40.706Z,85.35
2022-09-12T00:29:15.307Z,87.47
2022-09-12T00:31:43.229Z,91.55
2022-09-12T00:34:11.889Z,93.03
2022-09-12T00:36:42.253Z,102.03
2022-09-12T00:39:16.787Z,94.55
2022-09-12T00:41:45.541Z,88.17
2022-09-12T00:44:47.645Z,95.00
2022-09-12T00:47:37.616Z,100.90
2022-09-12T00:50:13.201Z,87.45
2022-09-12T00:52:51.647Z,87.03
2022-09-12T00:55:26.310Z,102.90
2022-09-12T00:58:00.695Z,109.30
2022-09-12T01:00:30.411Z,100.43
2022-09-12T01:03:07.181Z,86.93
2022-09-12T01:05:40.845Z,80.40
2022-09-12T01:08:08.674Z,101.85
2022-09-12T01:10:40.094Z,88.07
2022-09-12T01:13:11.020Z,90.97
2022-09-12T01:15:41.126Z,94.35
2022-09-12T01:18:21.025Z,82.72
2022-09-12T01:21:08.954Z,97.57
2022-09-12T01:24:12.092Z,107.70
2022-09-12T01:27:47.765Z,94.35
2022-09-12T01:30:39.424Z,103.32
2022-09-12T01:33:48.845Z,108.97
2022-09-12T01:36:38.085Z,86.57
2022-09-12T01:39:12.313Z,76.13
2022-09-12T01:41:52.944Z,82.22
2022-09-12T01:44:35.013Z,85.45
2022-09-12T01:47:10.048Z,72.95
2022-09-12T01:49:50.017Z,78.95
2022-09-12T01:52:26.402Z,83.18
2022-09-12T01:55:01.528Z,82.47
2022-09-12T01:57:41.274Z,90.10
2022-09-12T02:00:13.076Z,80.30
2022-09-12T02:02:55.446Z,73.20
2022-09-12T02:05:33.495Z,80.30
2022-09-12T02:08:09.602Z,80.43
2022-09-12T02:10:45.286Z,83.80
2022-09-12T02:13:22.365Z,83.18
2022-09-12T02:15:58.927Z,90.70
2022-09-12T02:18:32.810Z,92.20
2022-09-12T02:21:06.474Z,95.57
2022-09-12T02:23:41.386Z,94.30
2022-09-12T02:26:21.581Z,89.45
2022-09-12T02:28:50.923Z,90.57
2022-09-12T02:31:28.263Z,89.30
2022-09-12T02:34:13.334Z,102.50
2022-09-12T02:36:52.265Z,90.90
2022-09-12T02:39:21.224Z,92.47
2022-09-12T02:41:53.155Z,88.22
2022-09-12T02:44:21.722Z,100.93
2022-09-12T02:46:57.496Z,98.82
2022-09-12T02:49:27.872Z,93.55
2022-09-12T02:51:56.212Z,116.88
2022-09-12T02:54:25.658Z,128.35
2022-09-12T02:56:53.748Z,117.60
2022-09-12T02:59:25.164Z,107.60
2022-09-12T03:02:25.048Z,98.70
2022-09-12T03:05:22.878Z,112.97
2022-09-12T03:08:26.772Z,139.70
2022-09-12T03:11:43.315Z,119.55
2022-09-12T03:14:30.616Z,102.35
2022-09-12T03:17:14.418Z,110.50
2022-09-12T03:19:55.284Z,140.32
2022-09-12T03:22:33.780Z,120.45
2022-09-12T03:25:13.496Z,119.68
2022-09-12T03:27:48.790Z,116.03
2022-09-12T03:30:17.007Z,105.07
2022-09-12T03:32:48.595Z,113.57
2022-09-12T03:35:22.971Z,111.05
2022-09-12T03:37:53.547Z,102.90
2022-09-12T03:40:21.732Z,110.47
2022-09-12T03:42:49.828Z,99.60
2022-09-12T03:45:18.030Z,109.28
2022-09-12T03:47:45.956Z,108.07
2022-09-12T03:50:16.153Z,116.00
2022-09-12T03:52:44.146Z,91.60
2022-09-12T03:55:13.545Z,92.93
2022-09-12T03:57:42.070Z,108.03
2022-09-12T04:00:14.422Z,107.32
2022-09-12T04:02:45.580Z,104.13
2022-09-12T04:05:13.619Z,111.93
2022-09-12T04:07:41.741Z,107.80
2022-09-12T04:10:10.302Z,95.68
2022-09-12T04:12:39.841Z,96.28
2022-09-12T04:15:10.195Z,105.35
2022-09-12T04:17:39.566Z,92.97
2022-09-12T04:20:08.360Z,87.80
2022-09-12T04:22:36.572Z,79.22
2022-09-12T04:25:05.626Z,84.00
2022-09-12T04:27:34.777Z,93.43
2022-09-12T04:30:06.171Z,82.95
2022-09-12T04:32:34.032Z,73.55
2022-09-12T04:35:02.188Z,83.13
2022-09-12T04:37:31.239Z,76.60
2022-09-12T04:40:01.156Z,78.18
2022-09-12T04:42:29.883Z,73.47
2022-09-12T04:44:58.023Z,71.60
2022-09-12T04:47:27.417Z,62.47
2022-09-12T04:49:55.582Z,72.50
2022-09-12T04:52:23.445Z,69.47
2022-09-12T04:54:51.278Z,63.80
2022-09-12T04:57:19.379Z,59.38
2022-09-12T04:59:47.256Z,55.78
2022-09-12T05:02:15.310Z,64.05
2022-09-12T05:04:47.005Z,60.33
2022-09-12T05:07:14.893Z,66.00
2022-09-12T05:09:43.195Z,69.73
2022-09-12T05:12:11.258Z,62.43
2022-09-12T05:14:39.498Z,66.40
2022-09-12T05:17:08.361Z,68.10
2022-09-12T05:19:36.939Z,62.35
2022-09-12T05:22:07.426Z,66.67
2022-09-12T05:24:36.111Z,67.13
2022-09-12T05:27:04.728Z,64.73
2022-09-12T05:29:32.672Z,59.30
2022-09-12T05:32:01.955Z,56.08
2022-09-12T05:34:30.083Z,55.63
2022-09-12T05:36:58.207Z,46.05
2022-09-12T05:39:28.358Z,46.10
2022-09-12T05:41:56.546Z,42.33
2022-09-12T05:44:24.827Z,42.42
2022-09-12T05:46:53.574Z,42.97
2022-09-12T05:49:21.617Z,37.10
2022-09-12T05:51:50.901Z,34.75
2022-09-12T05:54:20.560Z,32.22
2022-09-12T05:56:49.869Z,27.20
2022-09-12T05:59:20.535Z,27.15
2022-09-12T06:01:49.631Z,22.73
2022-09-12T06:04:17.891Z,24.48
2022-09-12T06:06:46.758Z,23.25
2022-09-12T06:09:16.541Z,20.58
2022-09-12T06:11:46.601Z,20.15
2022-09-12T06:14:17.636Z,18.10
2022-09-12T06:16:48.098Z,20.05
2022-09-12T06:19:19.485Z,19.95
2022-09-12T06:21:50.020Z,17.35
2022-09-12T06:24:19.994Z,17.15
2022-09-12T06:26:49.787Z,17.42
2022-09-12T06:29:19.620Z,17.27
2022-09-12T06:31:47.409Z,16.40
2022-09-12T06:34:16.690Z,17.65
2022-09-12T06:36:47.345Z,15.18
2022-09-12T06:39:17.513Z,14.75
2022-09-12T06:41:47.873Z,15.15
2022-09-12T06:44:20.031Z,16.35
2022-09-12T06:46:48.843Z,18.73
2022-09-12T06:49:17.980Z,16.88
2022-09-12T06:51:47.511Z,18.98
2022-09-12T06:54:17.427Z,17.30
2022-09-12T06:56:45.291Z,17.52
2022-09-12T06:59:13.327Z,18.52
2022-09-12T07:01:42.901Z,16.65
2022-09-12T07:04:13.816Z,15.65
2022-09-12T07:06:44.016Z,18.60
2022-09-12T07:09:17.380Z,15.85
2022-09-12T07:11:46.616Z,16.65
2022-09-12T07:14:16.218Z,15.55
2022-09-12T07:16:45.432Z,13.82
2022-09-12T07:19:13.327Z,15.32
2022-09-12T07:21:43.166Z,14.07
2022-09-12T07:24:11.458Z,13.73
2022-09-12T07:26:41.833Z,14.80
2022-09-12T07:29:36.682Z,13.98
2022-09-12T07:32:07.536Z,14.38
2022-09-12T07:34:35.862Z,15.63
2022-09-12T07:37:03.952Z,14.63
2022-09-12T07:39:32.794Z,16.20
2022-09-12T07:42:02.561Z,17.30
2022-09-12T07:44:30.686Z,15.32
2022-09-12T07:46:58.777Z,14.50
2022-09-12T07:49:28.216Z,14.60
2022-09-12T07:51:56.883Z,15.07
2022-09-12T07:54:24.754Z,13.40
2022-09-12T07:56:52.756Z,14.75
2022-09-12T07:59:41.481Z,13.02
2022-09-12T08:02:17.549Z,14.80
2022-09-12T08:04:49.104Z,14.25
2022-09-12T08:07:19.095Z,15.20
2022-09-12T08:09:49.245Z,14.77
2022-09-12T08:12:20.158Z,12.32
2022-09-12T08:14:48.473Z,13.45
2022-09-12T08:17:16.404Z,12.98
2022-09-12T08:19:44.956Z,13.52
2022-09-12T08:22:14.396Z,12.55
2022-09-12T08:24:44.516Z,14.48
2022-09-12T08:27:17.019Z,14.65
2022-09-12T08:29:45.124Z,14.80
2022-09-12T08:32:13.015Z,12.82
2022-09-12T08:34:40.849Z,11.50
2022-09-12T08:37:08.726Z,12.68
2022-09-12T08:39:40.051Z,13.15
2022-09-12T08:42:24.659Z,14.35
2022-09-12T08:45:11.702Z,13.73
2022-09-12T08:47:45.831Z,12.93
2022-09-12T08:50:20.598Z,14.45
2022-09-12T08:52:58.852Z,13.18
2022-09-12T08:55:35.480Z,12.15
2022-09-12T08:58:17.210Z,11.73
2022-09-12T09:00:59.451Z,14.20
2022-09-12T09:03:58.555Z,12.80
2022-09-12T09:06:52.286Z,12.50
2022-09-12T09:09:39.634Z,12.40
2022-09-12T09:12:23.737Z,13.77
2022-09-12T09:15:14.665Z,14.57
2022-09-12T09:17:51.887Z,12.75
2022-09-12T09:20:32.294Z,12.00
2022-09-12T09:23:08.122Z,11.88
2022-09-12T09:25:52.506Z,11.77
2022-09-12T09:28:31.658Z,13.65
2022-09-12T09:31:00.030Z,10.32
2022-09-12T09:33:35.114Z,13.07
2022-09-12T09:36:20.778Z,12.63
2022-09-12T09:38:54.235Z,13.30
2022-09-12T09:41:51.558Z,13.43
2022-09-12T09:44:21.066Z,11.50
2022-09-12T09:46:54.823Z,13.73
2022-09-12T09:49:25.617Z,11.07
2022-09-12T09:51:58.784Z,13.07
2022-09-12T09:54:36.509Z,12.18
2022-09-12T09:57:05.152Z,12.68
2022-09-12T09:59:35.645Z,13.98
2022-09-12T10:02:24.297Z,12.98
2022-09-12T10:04:58.751Z,14.43
2022-09-12T10:07:27.375Z,11.80
2022-09-12T10:10:14.842Z,12.25
2022-09-12T10:12:43.462Z,14.70
2022-09-12T10:15:26.703Z,14.73
2022-09-12T10:17:56.914Z,13.52
2022-09-12T10:20:38.517Z,13.88
2022-09-12T10:23:30.338Z,12.60
2022-09-12T10:26:03.934Z,11.48
2022-09-12T10:28:39.289Z,12.70
2022-09-12T10:31:17.427Z,12.02
2022-09-12T10:33:53.385Z,12.38
2022-09-12T10:36:29.115Z,13.18
2022-09-12T10:39:03.098Z,14.65
2022-09-12T10:41:40.839Z,12.65
2022-09-12T10:44:17.640Z,10.48
2022-09-12T10:46:47.192Z,11.25
2022-09-12T10:49:27.856Z,12.32
2022-09-12T10:52:15.433Z,12.48
2022-09-12T10:54:43.769Z,11.02
2022-09-12T10:57:44.223Z,11.27
2022-09-12T11:00:17.884Z,10.57
2022-09-12T11:03:08.383Z,9.32
2022-09-12T11:05:57.805Z,11.43
2022-09-12T11:09:06.281Z,10.90
2022-09-12T11:11:58.446Z,11.45
2022-09-12T11:14:44.332Z,10.43
2022-09-12T11:17:30.213Z,9.73
2022-09-12T11:20:39.107Z,10.45
2022-09-12T11:23:44.839Z,8.13
2022-09-12T11:26:34.392Z,9.05
2022-09-12T11:29:16.252Z,8.45
2022-09-12T11:32:10.536Z,7.38
2022-09-12T11:34:58.793Z,8.65
2022-09-12T11:37:49.368Z,7.03
2022-09-12T11:40:30.807Z,7.28
2022-09-12T11:43:07.545Z,6.60
2022-09-12T11:45:42.896Z,6.97
2022-09-12T11:48:28.307Z,7.43
2022-09-12T11:51:02.492Z,8.05
2022-09-12T11:53:40.975Z,7.07
2022-09-12T11:56:18.535Z,8.13
2022-09-12T11:58:58.905Z,7.47
2022-09-12T12:01:45.005Z,7.85
2022-09-12T12:04:27.573Z,7.30
2022-09-12T12:07:03.298Z,6.18
2022-09-12T12:09:37.413Z,7.38
2022-09-12T12:12:16.848Z,7.38
2022-09-12T12:14:49.182Z,7.85
2022-09-12T12:17:23.173Z,6.70
2022-09-12T12:20:05.533Z,7.97
2022-09-12T12:22:36.297Z,7.47
2022-09-12T12:25:29.916Z,7.30
2022-09-12T12:28:01.813Z,6.00
2022-09-12T12:31:01.168Z,7.97
2022-09-12T12:34:00.612Z,6.85
2022-09-12T12:36:52.436Z,7.38
2022-09-12T12:40:04.834Z,8.55
2022-09-12T12:43:31.483Z,7.50
2022-09-12T12:46:05.053Z,6.88
2022-09-12T12:48:46.254Z,8.85
2022-09-12T12:51:44.367Z,7.38
2022-09-12T12:54:50.145Z,10.27
2022-09-12T12:57:52.672Z,6.53
2022-09-12T13:00:35.394Z,7.30
2022-09-12T13:03:23.939Z,6.35
2022-09-12T13:06:00.851Z,5.78
2022-09-12T13:08:33.113Z,7.82
2022-09-12T13:11:08.340Z,8.20
2022-09-12T13:13:44.087Z,6.18
2022-09-12T13:16:35.069Z,7.43
2022-09-12T13:19:08.384Z,9.25
2022-09-12T13:21:36.600Z,7.00
2022-09-12T13:24:13.916Z,6.13
2022-09-12T13:26:46.213Z,6.72
2022-09-12T13:29:18.566Z,8.30
2022-09-12T13:31:54.658Z,7.38
2022-09-12T13:34:29.207Z,6.90
2022-09-12T13:37:28.069Z,6.82
2022-09-12T13:40:16.835Z,6.88
2022-09-12T13:42:51.119Z,5.65
2022-09-12T13:45:22.787Z,8.43
2022-09-12T13:47:58.893Z,5.72
2022-09-12T13:50:32.970Z,5.35
2022-09-12T13:53:07.173Z,5.97
2022-09-12T13:55:41.867Z,6.32
2022-09-12T13:58:21.150Z,6.25
2022-09-12T14:01:02.664Z,5.28
2022-09-12T14:03:58.987Z,4.65
2022-09-12T14:06:27.723Z,4.80
2022-09-12T14:09:01.310Z,4.30
2022-09-12T14:11:34.133Z,6.13
2022-09-12T14:14:17.140Z,4.22
2022-09-12T14:16:45.118Z,4.25
2022-09-12T14:19:16.426Z,4.00
2022-09-12T14:21:46.432Z,4.50
2022-09-12T14:24:15.000Z,5.15
2022-09-12T14:26:44.840Z,3.70
2022-09-12T14:29:17.683Z,3.60
2022-09-12T14:31:46.176Z,4.03
2022-09-12T14:34:18.434Z,4.53
2022-09-12T14:36:49.909Z,4.03
2022-09-12T14:39:31.889Z,3.97
2022-09-12T14:42:06.191Z,7.47
2022-09-12T14:44:36.616Z,4.25
2022-09-12T14:47:20.150Z,3.70
2022-09-12T14:49:54.129Z,3.58
2022-09-12T14:52:28.754Z,3.15
2022-09-12T14:54:59.621Z,3.83
2022-09-12T14:57:39.227Z,3.22
2022-09-12T15:00:26.278Z,3.25
2022-09-12T15:02:54.763Z,3.47
2022-09-12T15:05:27.919Z,3.08
2022-09-12T15:08:00.652Z,5.88
2022-09-12T15:10:32.312Z,2.67
2022-09-12T15:13:19.586Z,3.45
2022-09-12T15:15:51.195Z,2.85
2022-09-12T15:18:20.649Z,3.17
2022-09-12T15:20:54.807Z,3.85
2022-09-12T15:23:40.135Z,3.10
2022-09-12T15:26:11.605Z,3.03
2022-09-12T15:28:40.459Z,3.22
2022-09-12T15:31:20.337Z,3.85
2022-09-12T15:33:49.111Z,3.72
2022-09-12T15:36:23.335Z,4.78
2022-09-12T15:38:53.339Z,3.90
2022-09-12T15:41:26.672Z,4.45
2022-09-12T15:43:54.700Z,3.47
2022-09-12T15:46:23.648Z,3.50
2022-09-12T15:48:52.320Z,3.15
2022-09-12T15:51:22.553Z,3.35
2022-09-12T15:53:51.730Z,3.90
2022-09-12T15:56:21.749Z,3.15
2022-09-12T15:58:58.672Z,6.03
2022-09-12T16:01:28.915Z,4.32
2022-09-12T16:04:01.281Z,3.78
2022-09-12T16:06:36.773Z,3.38
2022-09-12T16:09:05.718Z,4.30
2022-09-12T16:11:34.951Z,4.40
2022-09-12T16:14:04.691Z,4.40
2022-09-12T16:16:32.718Z,5.10
2022-09-12T16:19:00.686Z,3.42
2022-09-12T16:21:29.894Z,3.65
2022-09-12T16:23:59.017Z,4.10
2022-09-12T16:26:26.965Z,3.95
2022-09-12T16:29:06.652Z,3.53
2022-09-12T16:31:39.313Z,3.63
2022-09-12T16:34:07.512Z,3.42
2022-09-12T16:36:36.833Z,4.10
2022-09-12T16:39:06.332Z,4.15
2022-09-12T16:41:34.951Z,3.80
2022-09-12T16:44:05.814Z,5.20
2022-09-12T16:46:34.657Z,4.07
2022-09-12T16:49:02.599Z,4.57
2022-09-12T16:51:38.226Z,8.40
2022-09-12T16:54:06.382Z,5.72
2022-09-12T16:56:34.997Z,4.55
2022-09-12T16:59:04.332Z,4.60
2022-09-12T17:01:35.205Z,5.70
2022-09-12T17:04:06.289Z,5.35
2022-09-12T17:06:35.022Z,5.95
2022-09-12T17:09:05.551Z,5.88
2022-09-12T17:11:39.402Z,4.80
2022-09-12T17:14:08.977Z,5.28
2022-09-12T17:16:40.893Z,5.28
2022-09-12T17:19:18.806Z,4.00
2022-09-12T17:21:49.116Z,4.63
2022-09-12T17:24:20.105Z,5.18
2022-09-12T17:26:51.060Z,5.63
2022-09-12T17:29:20.134Z,5.35
2022-09-12T17:31:50.428Z,4.80
2022-09-12T17:34:18.308Z,7.10
2022-09-12T17:36:48.307Z,5.75
2022-09-12T17:39:18.045Z,5.22
2022-09-12T17:41:47.367Z,5.47
2022-09-12T17:44:16.039Z,8.60
2022-09-12T17:46:44.373Z,4.93
2022-09-12T17:49:16.800Z,5.30
2022-09-12T17:51:47.042Z,5.53
2022-09-12T17:54:20.793Z,5.82
2022-09-12T17:56:51.479Z,6.68
2022-09-12T17:59:23.904Z,4.75
2022-09-12T18:02:10.501Z,5.85
2022-09-12T18:04:42.257Z,6.55
2022-09-12T18:07:10.538Z,7.10
2022-09-12T18:09:41.451Z,4.57
2022-09-12T18:12:12.669Z,5.50
2022-09-12T18:14:40.913Z,5.05
2022-09-12T18:17:11.365Z,5.55
2022-09-12T18:19:40.954Z,4.90
2022-09-12T18:22:09.434Z,4.75
2022-09-12T18:24:39.756Z,4.90
2022-09-12T18:27:07.689Z,7.40
2022-09-12T18:29:36.409Z,6.47
2022-09-12T18:32:04.472Z,4.95
2022-09-12T18:34:32.951Z,4.03
2022-09-12T18:37:01.857Z,6.95
2022-09-12T18:39:29.761Z,5.60
2022-09-12T18:41:59.166Z,7.72
2022-09-12T18:44:27.874Z,5.68
2022-09-12T18:46:56.667Z,5.82
2022-09-12T18:49:24.630Z,5.60
2022-09-12T18:51:52.719Z,6.10
2022-09-12T18:54:20.783Z,6.30
2022-09-12T18:56:48.797Z,5.35
2022-09-12T18:59:20.602Z,6.43
2022-09-12T19:01:48.774Z,5.68
2022-09-12T19:04:17.303Z,5.65
2022-09-12T19:06:48.215Z,7.25
2022-09-12T19:09:20.634Z,6.30
2022-09-12T19:11:50.361Z,6.20
2022-09-12T19:14:23.049Z,5.43
2022-09-12T19:16:52.844Z,5.70
2022-09-12T19:19:22.942Z,5.72
2022-09-12T19:21:51.889Z,6.30
2022-09-12T19:24:21.678Z,7.78
2022-09-12T19:26:51.496Z,5.80
2022-09-12T19:29:22.019Z,6.85
2022-09-12T19:31:54.076Z,7.43
2022-09-12T19:34:22.938Z,6.40
2022-09-12T19:36:50.855Z,6.63
2022-09-12T19:39:19.864Z,7.25
2022-09-12T19:41:48.270Z,7.28
2022-09-12T19:44:19.154Z,7.22
2022-09-12T19:46:48.479Z,9.07
2022-09-12T19:49:16.383Z,7.18
2022-09-12T19:51:45.485Z,7.65
2022-09-12T19:54:14.755Z,7.97
2022-09-12T19:56:42.614Z,8.15
2022-09-12T19:59:11.125Z,9.20
2022-09-12T20:01:39.364Z,9.35
2022-09-12T20:04:08.656Z,8.77
2022-09-12T20:06:36.710Z,8.38
2022-09-12T20:09:04.807Z,8.13
2022-09-12T20:11:32.829Z,7.07
2022-09-12T20:14:01.571Z,6.40
2022-09-12T20:16:30.072Z,8.48
2022-09-12T20:19:02.300Z,7.90
2022-09-12T20:21:36.152Z,7.95
2022-09-12T20:24:07.640Z,7.10
2022-09-12T20:26:36.688Z,6.78
2022-09-12T20:29:05.424Z,8.15
2022-09-12T20:31:36.593Z,9.10
2022-09-12T20:34:06.576Z,7.72
2022-09-12T20:36:35.829Z,8.50
2022-09-12T20:39:05.807Z,9.30
2022-09-12T20:41:36.623Z,7.55
2022-09-12T20:44:04.628Z,9.25
2022-09-12T20:46:33.418Z,8.45
2022-09-12T20:49:01.766Z,8.50
2022-09-12T20:51:30.470Z,9.45
2022-09-12T20:54:03.373Z,9.18
2022-09-12T20:56:34.051Z,9.27
2022-09-12T20:59:04.313Z,8.80
2022-09-12T21:01:33.109Z,8.27
2022-09-12T21:04:02.670Z,9.23
2022-09-12T21:06:31.691Z,10.20
2022-09-12T21:09:01.094Z,7.45
2022-09-12T21:11:29.701Z,9.60
2022-09-12T21:13:58.101Z,9.30
2022-09-12T21:16:26.583Z,7.78
2022-09-12T21:18:58.858Z,7.82
2022-09-12T21:21:27.160Z,7.40
2022-09-12T21:24:00.457Z,8.40
2022-09-12T21:26:29.403Z,8.52
2022-09-12T21:28:58.501Z,9.57
2022-09-12T21:31:27.242Z,9.43
2022-09-12T21:33:55.263Z,8.27
2022-09-12T21:36:24.828Z,10.43
2022-09-12T21:38:52.890Z,7.95
2022-09-12T21:41:22.703Z,8.77
2022-09-12T21:43:51.238Z,9.65
2022-09-12T21:46:19.215Z,10.10
2022-09-12T21:48:47.416Z,10.73
2022-09-12T21:51:15.372Z,8.52
2022-09-12T21:53:43.590Z,9.27
2022-09-12T21:56:11.827Z,9.52
2022-09-12T21:58:41.333Z,11.90
2022-09-12T22:01:11.741Z,10.38
2022-09-12T22:03:42.460Z,9.85
2022-09-12T22:06:10.413Z,9.85
2022-09-12T22:08:39.156Z,10.45
2022-09-12T22:11:11.770Z,10.13
2022-09-12T22:13:45.716Z,8.65
2022-09-12T22:16:14.334Z,9.65
2022-09-12T22:18:42.200Z,10.07
2022-09-12T22:21:15.842Z,9.95
2022-09-12T22:24:02.478Z,8.70
2022-09-12T22:26:34.935Z,10.68
2022-09-12T22:29:04.921Z,9.02
2022-09-12T22:31:34.219Z,9.20
2022-09-12T22:34:02.398Z,10.60
2022-09-12T22:36:31.879Z,12.00
2022-09-12T22:39:00.677Z,10.80
2022-09-12T22:41:28.626Z,10.88
2022-09-12T22:43:57.275Z,11.95
2022-09-12T22:46:27.453Z,11.70
2022-09-12T22:48:55.784Z,9.35
2022-09-12T22:51:24.184Z,10.82
2022-09-12T22:53:52.431Z,9.90
2022-09-12T22:56:20.245Z,9.68
2022-09-12T22:58:48.612Z,11.18
2022-09-12T23:01:17.454Z,11.10
2022-09-12T23:03:46.656Z,12.88
2022-09-12T23:06:14.815Z,12.48
2022-09-12T23:08:43.631Z,11.68
2022-09-12T23:11:13.918Z,11.50
2022-09-12T23:13:44.670Z,10.07
2022-09-12T23:16:17.010Z,9.98
2022-09-12T23:18:46.543Z,9.27
2022-09-12T23:21:17.098Z,10.40
2022-09-12T23:23:44.984Z,9.85
2022-09-12T23:26:15.440Z,9.45
2022-09-12T23:28:52.683Z,10.88
2022-09-12T23:31:21.378Z,9.23
2022-09-12T23:33:53.262Z,9.93
2022-09-12T23:36:22.332Z,9.50
2022-09-12T23:38:50.931Z,9.43
2022-09-12T23:41:19.971Z,10.50
2022-09-12T23:43:48.183Z,10.30
2022-09-12T23:46:18.438Z,10.48
2022-09-12T23:48:46.584Z,9.77
2022-09-12T23:51:16.434Z,12.50
2022-09-12T23:53:44.261Z,10.85
2022-09-12T23:56:12.030Z,9.27
2022-09-12T23:58:39.859Z,9.68
